createdAt,value
2019-02-10T00:01:29.146Z,924.50
2019-02-10T00:03:00.962Z,924.53
2019-02-10T00:04:32.775Z,924.52
2019-02-10T00:06:04.590Z,924.53
2019-02-10T00:07:36.405Z,924.52
2019-02-10T00:09:08.220Z,924.55
2019-02-10T00:10:40.038Z,924.54
2019-02-10T00:12:11.849Z,924.55
2019-02-10T00:13:43.664Z,924.55
2019-02-10T00:15:15.479Z,924.53
2019-02-10T00:16:47.395Z,924.55
2019-02-10T00:18:19.108Z,924.57
2019-02-10T00:19:50.923Z,924.54
2019-02-10T00:21:22.737Z,924.60
2019-02-10T00:22:54.554Z,924.62
2019-02-10T00:24:26.367Z,924.69
2019-02-10T00:25:58.184Z,924.68
2019-02-10T00:27:29.997Z,924.67
2019-02-10T00:29:01.813Z,924.69
2019-02-10T00:30:33.626Z,924.71
2019-02-10T00:32:05.441Z,924.70
2019-02-10T00:33:37.256Z,924.71
2019-02-10T00:35:09.175Z,924.71
2019-02-10T00:36:40.886Z,924.69
2019-02-10T00:38:12.702Z,924.68
2019-02-10T00:39:44.515Z,924.73
2019-02-10T00:41:16.333Z,924.64
2019-02-10T00:42:48.449Z,924.65
2019-02-10T00:44:19.959Z,924.66
2019-02-10T00:45:51.773Z,924.66
2019-02-10T00:47:23.587Z,924.60
2019-02-10T00:48:55.527Z,924.58
2019-02-10T00:50:27.217Z,924.61
2019-02-10T00:51:59.031Z,924.58
2019-02-10T00:53:31.095Z,924.56
2019-02-10T00:55:02.663Z,924.50
2019-02-10T00:56:34.475Z,924.49
2019-02-10T00:58:06.288Z,924.47
2019-02-10T00:59:38.105Z,924.48
2019-02-10T01:01:09.918Z,924.44
2019-02-10T01:02:41.732Z,924.40
2019-02-10T01:04:13.547Z,924.42
2019-02-10T01:05:45.360Z,924.44
2019-02-10T01:07:17.175Z,924.46
2019-02-10T01:08:49.496Z,924.51
2019-02-10T01:10:20.805Z,924.53
2019-02-10T01:11:52.721Z,924.49
2019-02-10T01:13:24.433Z,924.50
2019-02-10T01:14:56.246Z,924.51
2019-02-10T01:16:28.060Z,924.57
2019-02-10T01:17:59.874Z,924.58
2019-02-10T01:19:31.688Z,924.56
2019-02-10T01:21:03.503Z,924.56
2019-02-10T01:22:35.316Z,924.53
2019-02-10T01:24:07.131Z,924.56
2019-02-10T01:25:38.945Z,924.58
2019-02-10T01:27:10.757Z,924.58
2019-02-10T01:28:42.573Z,924.62
2019-02-10T01:30:14.786Z,924.64
2019-02-10T01:31:46.200Z,924.67
2019-02-10T01:33:18.019Z,924.65
2019-02-10T01:34:49.827Z,924.66
2019-02-10T01:36:21.641Z,924.65
2019-02-10T01:37:53.455Z,924.65
2019-02-10T01:39:25.279Z,924.71
2019-02-10T01:40:57.086Z,924.74
2019-02-10T01:42:28.898Z,924.72
2019-02-10T01:44:00.714Z,924.78
2019-02-10T01:45:32.526Z,924.71
2019-02-10T01:47:04.340Z,924.73
2019-02-10T01:48:36.254Z,924.72
2019-02-10T01:50:08.016Z,924.71
2019-02-10T01:51:39.782Z,924.75
2019-02-10T01:53:11.599Z,924.76
2019-02-10T01:54:43.410Z,924.72
2019-02-10T01:56:15.226Z,924.68
2019-02-10T01:57:47.038Z,924.66
2019-02-10T01:59:18.853Z,924.60
2019-02-10T02:00:50.668Z,924.63
2019-02-10T02:02:22.482Z,924.60
2019-02-10T02:03:54.296Z,924.54
2019-02-10T02:05:26.110Z,924.60
2019-02-10T02:06:58.259Z,924.67
2019-02-10T02:08:29.739Z,924.67
2019-02-10T02:10:01.555Z,924.74
2019-02-10T02:11:33.368Z,924.73
2019-02-10T02:13:05.180Z,924.73
2019-02-10T02:14:36.993Z,924.72
2019-02-10T02:16:08.809Z,924.69
2019-02-10T02:17:40.623Z,924.67
2019-02-10T02:19:12.436Z,924.73
2019-02-10T02:20:44.251Z,924.69
2019-02-10T02:22:16.097Z,924.73
2019-02-10T02:23:48.186Z,924.73
2019-02-10T02:25:19.793Z,924.75
2019-02-10T02:26:51.508Z,924.78
2019-02-10T02:28:23.322Z,924.79
2019-02-10T02:29:55.139Z,924.80
2019-02-10T02:31:26.950Z,924.77
2019-02-10T02:32:58.766Z,924.77
2019-02-10T02:34:30.578Z,924.72
2019-02-10T02:36:02.391Z,924.74
2019-02-10T02:37:34.206Z,924.72
2019-02-10T02:39:06.020Z,924.70
2019-02-10T02:40:37.834Z,924.71
2019-02-10T02:42:09.647Z,924.64
2019-02-10T02:43:41.584Z,924.71
2019-02-10T02:45:13.282Z,924.68
2019-02-10T02:46:45.088Z,924.69
2019-02-10T02:48:16.903Z,924.68
2019-02-10T02:49:48.717Z,924.67
2019-02-10T02:51:20.531Z,924.72
2019-02-10T02:52:52.347Z,924.67
2019-02-10T02:54:24.159Z,924.72
2019-02-10T02:55:55.972Z,924.72
2019-02-10T02:57:27.786Z,924.76
2019-02-10T02:58:59.602Z,924.78
2019-02-10T03:00:31.419Z,924.80
2019-02-10T03:02:03.329Z,924.82
2019-02-10T03:03:35.061Z,924.82
2019-02-10T03:05:06.857Z,924.84
2019-02-10T03:06:38.672Z,924.87
2019-02-10T03:08:10.488Z,924.88
2019-02-10T03:09:42.299Z,924.91
2019-02-10T03:11:14.113Z,924.87
2019-02-10T03:12:45.928Z,924.84
2019-02-10T03:14:17.742Z,924.86
2019-02-10T03:15:49.556Z,924.82
2019-02-10T03:17:21.369Z,924.79
2019-02-10T03:18:53.552Z,924.80
2019-02-10T03:20:25.174Z,924.77
2019-02-10T03:21:56.811Z,924.78
2019-02-10T03:23:28.624Z,924.80
2019-02-10T03:25:00.570Z,924.76
2019-02-10T03:26:32.252Z,924.80
2019-02-10T03:28:04.065Z,924.82
2019-02-10T03:29:35.880Z,924.81
2019-02-10T03:31:07.693Z,924.80
2019-02-10T03:32:39.508Z,924.78
2019-02-10T03:34:11.324Z,924.72
2019-02-10T03:35:43.136Z,924.64
2019-02-10T03:37:14.950Z,924.65
2019-02-10T03:38:46.863Z,924.63
2019-02-10T03:40:18.575Z,924.70
2019-02-10T03:41:50.389Z,924.67
2019-02-10T03:43:22.203Z,924.71
2019-02-10T03:44:54.016Z,924.71
2019-02-10T03:46:25.833Z,924.68
2019-02-10T03:47:57.643Z,924.61
2019-02-10T03:49:29.457Z,924.61
2019-02-10T03:51:01.271Z,924.57
2019-02-10T03:52:33.089Z,924.61
2019-02-10T03:54:04.898Z,924.59
2019-02-10T03:55:36.712Z,924.54
2019-02-10T03:57:08.627Z,924.50
2019-02-10T03:58:40.338Z,924.50
2019-02-10T04:00:12.151Z,924.44
2019-02-10T04:01:43.966Z,924.45
2019-02-10T04:03:15.779Z,924.51
2019-02-10T04:04:47.600Z,924.56
2019-02-10T04:06:19.405Z,924.53
2019-02-10T04:07:51.219Z,924.53
2019-02-10T04:09:23.032Z,924.54
2019-02-10T04:10:54.848Z,924.47
2019-02-10T04:12:26.665Z,924.42
2019-02-10T04:13:58.471Z,924.43
2019-02-10T04:15:30.386Z,924.43
2019-02-10T04:17:02.101Z,924.47
2019-02-10T04:18:33.911Z,924.52
2019-02-10T04:20:05.733Z,924.54
2019-02-10T04:21:37.539Z,924.48
2019-02-10T04:23:09.356Z,924.46
2019-02-10T04:24:41.167Z,924.39
2019-02-10T04:26:12.976Z,924.44
2019-02-10T04:27:44.790Z,924.39
2019-02-10T04:29:16.607Z,924.39
2019-02-10T04:30:48.416Z,924.41
2019-02-10T04:32:20.231Z,924.38
2019-02-10T04:33:52.142Z,924.33
2019-02-10T04:35:23.855Z,924.30
2019-02-10T04:36:55.669Z,924.25
2019-02-10T04:38:27.481Z,924.19
2019-02-10T04:39:59.300Z,924.14
2019-02-10T04:41:31.108Z,924.10
2019-02-10T04:43:02.923Z,924.04
2019-02-10T04:44:34.736Z,924.08
2019-02-10T04:46:06.550Z,924.05
2019-02-10T04:47:38.361Z,924.08
2019-02-10T04:49:10.172Z,924.02
2019-02-10T04:50:41.985Z,924.03
2019-02-10T04:52:14.149Z,923.98
2019-02-10T04:53:45.611Z,924.01
2019-02-10T04:55:17.425Z,923.98
2019-02-10T04:56:49.237Z,924.00
2019-02-10T04:58:21.151Z,923.97
2019-02-10T04:59:52.863Z,923.93
2019-02-10T05:01:24.676Z,923.84
2019-02-10T05:02:56.489Z,923.79
2019-02-10T05:04:28.303Z,923.75
2019-02-10T05:06:00.115Z,923.75
2019-02-10T05:07:31.928Z,923.78
2019-02-10T05:09:03.742Z,923.75
2019-02-10T05:10:35.656Z,923.78
2019-02-10T05:12:07.369Z,923.81
2019-02-10T05:13:39.187Z,923.81
2019-02-10T05:15:10.993Z,923.77
2019-02-10T05:16:44.892Z,923.81
2019-02-10T05:18:14.621Z,923.76
2019-02-10T05:19:46.433Z,923.73
2019-02-10T05:21:18.248Z,923.72
2019-02-10T05:22:50.061Z,923.72
2019-02-10T05:24:21.873Z,923.72
2019-02-10T05:25:53.691Z,923.71
2019-02-10T05:27:25.503Z,923.61
2019-02-10T05:28:57.412Z,923.65
2019-02-10T05:30:29.126Z,923.64
2019-02-10T05:32:00.938Z,923.64
2019-02-10T05:33:32.754Z,923.64
2019-02-10T05:35:04.566Z,923.67
2019-02-10T05:36:36.377Z,923.68
2019-02-10T05:38:08.191Z,923.71
2019-02-10T05:39:40.004Z,923.68
2019-02-10T05:41:11.817Z,923.64
2019-02-10T05:42:43.630Z,923.66
2019-02-10T05:44:15.443Z,923.62
2019-02-10T05:45:47.256Z,923.68
2019-02-10T05:47:19.511Z,923.71
2019-02-10T05:48:50.885Z,923.75
2019-02-10T05:50:22.699Z,923.77
2019-02-10T05:51:54.508Z,923.78
2019-02-10T05:53:26.333Z,923.81
2019-02-10T05:54:58.133Z,923.81
2019-02-10T05:56:29.946Z,923.78
2019-02-10T05:58:01.764Z,923.80
2019-02-10T05:59:33.571Z,923.76
2019-02-10T06:01:05.385Z,923.73
2019-02-10T06:02:37.197Z,923.72
2019-02-10T06:04:09.014Z,923.77
2019-02-10T06:05:40.923Z,923.77
2019-02-10T06:07:12.637Z,923.75
2019-02-10T06:08:44.456Z,923.73
2019-02-10T06:10:16.265Z,923.77
2019-02-10T06:11:48.075Z,923.79
2019-02-10T06:13:19.889Z,923.79
2019-02-10T06:14:51.702Z,923.80
2019-02-10T06:16:23.517Z,923.79
2019-02-10T06:17:55.328Z,923.78
2019-02-10T06:19:27.141Z,923.81
2019-02-10T06:20:58.954Z,923.73
2019-02-10T06:22:30.767Z,923.75
2019-02-10T06:24:02.681Z,923.73
2019-02-10T06:25:34.393Z,923.68
2019-02-10T06:27:06.207Z,923.63
2019-02-10T06:28:38.019Z,923.64
2019-02-10T06:30:09.832Z,923.62
2019-02-10T06:31:41.645Z,923.63
2019-02-10T06:33:13.459Z,923.61
2019-02-10T06:34:45.273Z,923.63
2019-02-10T06:36:17.085Z,923.63
2019-02-10T06:39:20.713Z,923.60
2019-02-10T06:40:52.525Z,923.59
2019-02-10T06:42:24.437Z,923.61
2019-02-10T06:43:56.152Z,923.64
2019-02-10T06:45:27.964Z,923.57
2019-02-10T06:46:59.779Z,923.52
2019-02-10T06:48:31.589Z,923.51
2019-02-10T06:50:03.405Z,923.53
2019-02-10T06:51:35.216Z,923.56
2019-02-10T06:53:07.031Z,923.60
2019-02-10T06:54:38.942Z,923.59
2019-02-10T06:56:10.656Z,923.54
2019-02-10T06:57:42.467Z,923.57
2019-02-10T06:59:14.281Z,923.52
2019-02-10T07:00:46.195Z,923.52
2019-02-10T07:02:17.907Z,923.55
2019-02-10T07:03:49.720Z,923.53
2019-02-10T07:05:21.533Z,923.47
2019-02-10T07:06:53.346Z,923.51
2019-02-10T07:08:30.371Z,923.52
2019-02-10T07:09:57.013Z,923.49
2019-02-10T07:11:28.785Z,923.48
2019-02-10T07:13:00.600Z,923.49
2019-02-10T07:14:32.411Z,923.48
2019-02-10T07:16:04.224Z,923.51
2019-02-10T07:17:36.037Z,923.49
2019-02-10T07:19:07.952Z,923.45
2019-02-10T07:20:39.665Z,923.50
2019-02-10T07:22:11.476Z,923.50
2019-02-10T07:23:43.292Z,923.51
2019-02-10T07:25:15.106Z,923.49
2019-02-10T07:26:46.915Z,923.48
2019-02-10T07:28:18.728Z,923.45
2019-02-10T07:29:50.541Z,923.45
2019-02-10T07:31:22.354Z,923.46
2019-02-10T07:32:54.169Z,923.45
2019-02-10T07:34:25.983Z,923.45
2019-02-10T07:35:57.792Z,923.48
2019-02-10T07:37:29.706Z,923.41
2019-02-10T07:39:01.418Z,923.44
2019-02-10T07:40:33.284Z,923.39
2019-02-10T07:42:05.044Z,923.40
2019-02-10T07:43:36.857Z,923.46
2019-02-10T07:45:08.727Z,923.47
2019-02-10T07:46:40.483Z,923.45
2019-02-10T07:48:12.296Z,923.44
2019-02-10T07:49:44.109Z,923.42
2019-02-10T07:51:15.923Z,923.40
2019-02-10T07:52:47.735Z,923.37
2019-02-10T07:54:19.550Z,923.42
2019-02-10T07:55:51.611Z,923.42
2019-02-10T07:57:23.175Z,923.49
2019-02-10T07:58:54.986Z,923.48
2019-02-10T08:00:26.799Z,923.45
2019-02-10T08:01:58.612Z,923.48
2019-02-10T08:03:30.428Z,923.50
2019-02-10T08:05:02.238Z,923.52
2019-02-10T08:06:34.051Z,923.54
2019-02-10T08:08:05.873Z,923.57
2019-02-10T08:09:37.676Z,923.57
2019-02-10T08:11:09.489Z,923.55
2019-02-10T08:12:41.302Z,923.55
2019-02-10T08:14:13.214Z,923.55
2019-02-10T08:15:44.926Z,923.58
2019-02-10T08:17:16.739Z,923.56
2019-02-10T08:18:48.553Z,923.57
2019-02-10T08:20:20.365Z,923.59
2019-02-10T08:21:52.177Z,923.65
2019-02-10T08:23:23.989Z,923.65
2019-02-10T08:24:55.803Z,923.69
2019-02-10T08:26:28.602Z,923.67
2019-02-10T08:27:59.427Z,923.70
2019-02-10T08:29:31.248Z,923.71
2019-02-10T08:31:03.052Z,923.75
2019-02-10T08:32:35.316Z,923.73
2019-02-10T08:34:06.679Z,923.76
2019-02-10T08:35:38.491Z,923.73
2019-02-10T08:37:10.303Z,923.75
2019-02-10T08:38:42.116Z,923.78
2019-02-10T08:40:13.929Z,923.79
2019-02-10T08:41:45.742Z,923.79
2019-02-10T08:43:17.555Z,923.82
2019-02-10T08:44:49.366Z,923.79
2019-02-10T08:46:21.179Z,923.77
2019-02-10T08:47:52.991Z,923.78
2019-02-10T08:49:25.695Z,923.77
2019-02-10T08:50:56.721Z,923.80
2019-02-10T08:52:28.429Z,923.79
2019-02-10T08:54:00.242Z,923.84
2019-02-10T08:55:32.055Z,923.85
2019-02-10T08:57:04.118Z,923.93
2019-02-10T08:58:35.681Z,923.94
2019-02-10T09:01:39.307Z,923.91
2019-02-10T09:03:11.122Z,923.91
2019-02-10T09:04:42.940Z,923.90
2019-02-10T09:06:14.746Z,923.92
2019-02-10T09:07:46.564Z,923.93
2019-02-10T09:09:18.473Z,924.02
2019-02-10T09:10:50.187Z,924.01
2019-02-10T09:12:22.004Z,924.07
2019-02-10T09:13:53.814Z,924.09
2019-02-10T09:15:25.630Z,924.08
2019-02-10T09:16:57.444Z,924.07
2019-02-10T09:18:29.258Z,924.12
2019-02-10T09:20:01.073Z,924.14
2019-02-10T09:21:32.887Z,924.15
2019-02-10T09:23:04.702Z,924.16
2019-02-10T09:24:36.517Z,924.20
2019-02-10T09:26:08.333Z,924.25
2019-02-10T09:27:40.550Z,924.28
2019-02-10T09:29:11.964Z,924.31
2019-02-10T09:30:43.780Z,924.34
2019-02-10T09:32:15.602Z,924.37
2019-02-10T09:33:47.413Z,924.43
2019-02-10T09:35:19.229Z,924.41
2019-02-10T09:36:51.046Z,924.46
2019-02-10T09:38:22.865Z,924.48
2019-02-10T09:39:54.680Z,924.45
2019-02-10T09:41:26.498Z,924.49
2019-02-10T09:42:58.314Z,924.50
2019-02-10T09:44:30.131Z,924.51
2019-02-10T09:46:02.050Z,924.55
2019-02-10T09:47:33.765Z,924.55
2019-02-10T09:50:37.399Z,924.58
2019-02-10T09:52:09.217Z,924.54
2019-02-10T09:53:41.041Z,924.53
2019-02-10T09:55:13.168Z,924.53
2019-02-10T09:56:44.667Z,924.59
2019-02-10T09:58:16.485Z,924.55
2019-02-10T10:01:20.121Z,924.56
2019-02-10T10:02:51.937Z,924.53
2019-02-10T10:04:23.856Z,924.54
2019-02-10T10:05:55.572Z,924.57
2019-02-10T10:07:27.597Z,924.60
2019-02-10T10:08:59.745Z,924.64
2019-02-10T10:10:31.028Z,924.59
2019-02-10T10:12:03.382Z,924.60
2019-02-10T10:13:34.664Z,924.60
2019-02-10T10:15:06.484Z,924.64
2019-02-10T10:18:10.121Z,924.73
2019-02-10T10:19:41.939Z,924.72
2019-02-10T10:21:13.759Z,924.75
2019-02-10T10:22:45.578Z,924.71
2019-02-10T10:24:17.497Z,924.77
2019-02-10T10:25:49.220Z,924.76
2019-02-10T10:27:21.238Z,924.79
2019-02-10T10:28:52.859Z,924.81
2019-02-10T10:30:24.674Z,924.85
2019-02-10T10:31:56.494Z,924.81
2019-02-10T10:33:28.315Z,924.80
2019-02-10T10:35:00.193Z,924.79
2019-02-10T10:36:31.954Z,924.79
2019-02-10T10:38:03.775Z,924.86
2019-02-10T10:39:35.596Z,924.82
2019-02-10T10:41:07.417Z,924.87
2019-02-10T10:42:39.339Z,924.89
2019-02-10T10:44:11.263Z,924.86
2019-02-10T10:45:42.884Z,924.80
2019-02-10T10:47:14.703Z,924.79
2019-02-10T10:48:46.524Z,924.79
2019-02-10T10:50:18.346Z,924.82
2019-02-10T10:53:21.991Z,924.82
2019-02-10T10:54:53.914Z,924.79
2019-02-10T10:56:25.637Z,924.81
2019-02-10T10:57:57.461Z,924.85
2019-02-10T10:59:29.283Z,924.81
2019-02-10T11:01:01.206Z,924.77
2019-02-10T11:02:33.234Z,924.82
2019-02-10T11:04:04.755Z,924.78
2019-02-10T11:05:36.578Z,924.81
2019-02-10T11:07:08.399Z,924.81
2019-02-10T11:08:40.223Z,924.82
2019-02-10T11:10:12.049Z,924.84
2019-02-10T11:11:43.869Z,924.82
2019-02-10T11:13:15.693Z,924.81
2019-02-10T11:14:47.519Z,924.79
2019-02-10T11:16:19.347Z,924.78
2019-02-10T11:19:23.294Z,924.77
2019-02-10T11:20:55.119Z,924.74
2019-02-10T11:22:26.638Z,924.82
2019-02-10T11:23:58.463Z,924.79
2019-02-10T11:25:30.288Z,924.80
2019-02-10T11:27:02.112Z,924.79
2019-02-10T11:28:33.935Z,924.81
2019-02-10T11:30:06.063Z,924.78
2019-02-10T11:31:37.585Z,924.84
2019-02-10T11:33:09.408Z,924.84
2019-02-10T11:34:46.049Z,924.85
2019-02-10T11:37:45.809Z,924.92
2019-02-10T11:39:16.707Z,924.89
2019-02-10T11:40:48.532Z,924.96
2019-02-10T11:42:20.358Z,925.00
2019-02-10T11:43:52.495Z,924.95
2019-02-10T11:45:24.007Z,924.92
2019-02-10T11:46:55.836Z,924.96
2019-02-10T11:48:27.658Z,924.93
2019-02-10T11:49:59.483Z,924.95
2019-02-10T11:51:31.311Z,924.98
2019-02-10T11:53:03.134Z,924.97
2019-02-10T11:54:35.170Z,924.94
2019-02-10T11:56:06.887Z,924.90
2019-02-10T11:57:38.611Z,924.94
2019-02-10T11:59:10.438Z,924.88
2019-02-10T12:00:42.266Z,924.93
2019-02-10T12:02:14.093Z,924.96
2019-02-10T12:05:17.746Z,924.93
2019-02-10T12:06:49.772Z,924.94
2019-02-10T12:08:21.413Z,924.88
2019-02-10T12:11:25.050Z,924.95
2019-02-10T12:12:57.078Z,924.94
2019-02-10T12:14:29.110Z,924.93
2019-02-10T12:16:00.530Z,924.90
2019-02-10T12:17:32.358Z,924.88
2019-02-10T12:19:04.184Z,924.92
2019-02-10T12:20:36.013Z,924.83
2019-02-10T12:22:07.843Z,924.83
2019-02-10T12:23:39.668Z,924.86
2019-02-10T12:25:11.495Z,924.88
2019-02-10T12:26:43.323Z,924.84
2019-02-10T12:28:15.151Z,924.87
2019-02-10T12:29:46.979Z,924.82
2019-02-10T12:31:18.850Z,924.86
2019-02-10T12:32:51.236Z,924.87
2019-02-10T12:34:22.466Z,924.88
2019-02-10T12:37:32.207Z,924.78
2019-02-10T12:38:57.954Z,924.77
2019-02-10T12:40:29.777Z,924.83
2019-02-10T12:42:01.601Z,924.84
2019-02-10T12:43:33.429Z,924.88
2019-02-10T12:45:05.257Z,924.85
2019-02-10T12:46:37.098Z,924.85
2019-02-10T12:48:08.940Z,924.86
2019-02-10T12:49:40.755Z,924.78
2019-02-10T12:51:12.671Z,924.81
2019-02-10T12:52:44.400Z,924.86
2019-02-10T12:54:16.273Z,924.83
2019-02-10T12:55:48.593Z,924.87
2019-02-10T12:57:19.886Z,924.80
2019-02-10T12:58:51.716Z,924.84
2019-02-10T13:00:23.550Z,924.85
2019-02-10T13:01:55.680Z,924.90
2019-02-10T13:03:27.205Z,924.84
2019-02-10T13:04:59.037Z,924.89
2019-02-10T13:06:30.865Z,924.86
2019-02-10T13:08:03.133Z,924.91
2019-02-10T13:09:34.626Z,924.92
2019-02-10T13:12:38.186Z,924.94
2019-02-10T13:14:10.018Z,924.80
2019-02-10T13:15:41.846Z,924.82
2019-02-10T13:17:13.676Z,924.82
2019-02-10T13:18:45.506Z,924.79
2019-02-10T13:20:17.337Z,924.79
2019-02-10T13:21:49.166Z,924.78
2019-02-10T13:23:20.999Z,924.77
2019-02-10T13:24:53.131Z,924.71
2019-02-10T13:26:24.657Z,924.80
2019-02-10T13:27:56.587Z,924.83
2019-02-10T13:29:28.317Z,924.83
2019-02-10T13:31:00.147Z,924.80
2019-02-10T13:32:31.977Z,924.80
2019-02-10T13:34:03.813Z,924.78
2019-02-10T13:35:35.638Z,924.78
2019-02-10T13:38:39.299Z,924.67
2019-02-10T13:40:16.461Z,924.67
2019-02-10T13:41:42.960Z,924.63
2019-02-10T13:43:14.791Z,924.55
2019-02-10T13:44:46.622Z,924.59
2019-02-10T13:46:18.552Z,924.56
2019-02-10T13:47:51.657Z,924.50
2019-02-10T13:49:22.112Z,924.50
2019-02-10T13:50:53.943Z,924.60
2019-02-10T13:52:25.774Z,924.50
2019-02-10T13:53:57.605Z,924.45
2019-02-10T13:57:01.269Z,924.43
2019-02-10T13:58:33.100Z,924.57
2019-02-10T14:00:04.933Z,924.71
2019-02-10T14:01:36.767Z,924.92
2019-02-10T14:03:08.598Z,924.85
2019-02-10T14:04:40.531Z,924.80
2019-02-10T14:06:12.264Z,924.76
2019-02-10T14:09:15.929Z,924.92
2019-02-10T14:10:47.763Z,924.81
2019-02-10T14:12:19.595Z,924.38
2019-02-10T14:13:51.426Z,924.41
2019-02-10T14:15:23.257Z,924.54
2019-02-10T14:16:55.288Z,924.58
2019-02-10T14:18:26.916Z,924.64
2019-02-10T14:19:58.747Z,924.67
2019-02-10T14:21:30.574Z,924.61
2019-02-10T14:23:02.504Z,924.72
2019-02-10T14:24:34.232Z,924.78
2019-02-10T14:26:06.061Z,924.78
2019-02-10T14:27:37.889Z,924.75
2019-02-10T14:29:09.719Z,924.66
2019-02-10T14:30:41.551Z,924.60
2019-02-10T14:32:13.378Z,924.63
2019-02-10T14:33:45.211Z,924.43
2019-02-10T14:35:17.051Z,924.45
2019-02-10T14:36:48.871Z,924.35
2019-02-10T14:38:20.706Z,924.33
2019-02-10T14:41:24.467Z,924.29
2019-02-10T14:42:56.400Z,924.20
2019-02-10T14:44:28.030Z,924.17
2019-02-10T14:45:59.862Z,924.23
2019-02-10T14:47:31.693Z,924.23
2019-02-10T14:49:03.523Z,924.31
2019-02-10T14:50:35.355Z,924.26
2019-02-10T14:53:39.017Z,924.04
2019-02-10T14:55:11.384Z,924.07
2019-02-10T14:56:42.993Z,924.09
2019-02-10T14:58:14.514Z,924.22
2019-02-10T14:59:46.437Z,924.45
2019-02-10T15:01:18.167Z,924.56
2019-02-10T15:05:53.658Z,924.09
2019-02-10T15:07:25.604Z,923.99
2019-02-10T15:08:57.318Z,924.02
2019-02-10T15:12:01.187Z,923.88
2019-02-10T15:13:33.116Z,923.95
2019-02-10T15:15:04.643Z,923.94
2019-02-10T15:16:36.475Z,923.81
2019-02-10T15:18:08.406Z,923.88
2019-02-10T15:19:40.138Z,923.94
2019-02-10T15:21:11.969Z,923.87
2019-02-10T15:22:43.801Z,923.96
2019-02-10T15:24:15.634Z,924.07
2019-02-10T15:25:47.467Z,924.06
2019-02-10T15:27:19.299Z,924.05
2019-02-10T15:30:22.966Z,923.95
2019-02-10T15:31:54.798Z,923.99
2019-02-10T15:33:26.631Z,923.97
2019-02-10T15:34:58.466Z,923.93
2019-02-10T15:36:30.398Z,923.88
2019-02-10T15:38:02.665Z,923.85
2019-02-10T15:39:33.962Z,923.90
2019-02-10T15:41:05.794Z,924.02
2019-02-10T15:42:37.626Z,924.05
2019-02-10T15:44:09.457Z,923.95
2019-02-10T15:45:41.290Z,924.06
2019-02-10T15:48:44.956Z,923.88
2019-02-10T15:50:16.790Z,923.88
2019-02-10T15:51:48.826Z,923.86
2019-02-10T15:53:20.456Z,924.05
2019-02-10T15:56:24.224Z,924.13
2019-02-10T15:57:55.959Z,924.01
2019-02-10T15:59:27.799Z,923.62
2019-02-10T16:00:59.626Z,923.82
2019-02-10T16:02:31.459Z,923.57
2019-02-10T16:04:03.291Z,923.88
2019-02-10T16:05:35.120Z,923.83
2019-02-10T16:07:06.953Z,923.69
2019-02-10T16:08:38.783Z,923.65
2019-02-10T16:10:10.616Z,923.63
2019-02-10T16:11:42.445Z,923.77
2019-02-10T16:13:14.278Z,923.54
2019-02-10T16:14:46.209Z,923.56
2019-02-10T16:16:17.940Z,923.57
2019-02-10T16:17:49.974Z,923.48
2019-02-10T16:19:21.911Z,923.49
2019-02-10T16:20:53.441Z,923.51
2019-02-10T16:22:25.288Z,923.41
2019-02-10T16:23:57.100Z,923.41
2019-02-10T16:25:28.931Z,923.45
2019-02-10T16:27:00.760Z,923.51
2019-02-10T16:28:32.588Z,923.50
2019-02-10T16:30:04.419Z,923.35
2019-02-10T16:31:36.242Z,923.54
2019-02-10T16:33:08.169Z,923.46
2019-02-10T16:34:39.896Z,923.44
2019-02-10T16:36:11.724Z,923.32
2019-02-10T16:37:43.554Z,923.36
2019-02-10T16:39:15.483Z,923.24
2019-02-10T16:40:47.212Z,923.00
2019-02-10T16:42:19.042Z,923.09
2019-02-10T16:45:22.700Z,923.01
2019-02-10T16:46:54.530Z,923.16
2019-02-10T16:48:26.360Z,923.37
2019-02-10T16:49:58.190Z,923.13
2019-02-10T16:51:30.122Z,923.17
2019-02-10T16:53:01.846Z,923.10
2019-02-10T16:54:33.677Z,923.01
2019-02-10T16:56:05.508Z,923.06
2019-02-10T16:57:37.336Z,923.03
2019-02-10T16:59:09.168Z,923.02
2019-02-10T17:00:41.000Z,923.03
2019-02-10T17:02:12.830Z,923.18
2019-02-10T17:03:44.915Z,923.01
2019-02-10T17:05:16.493Z,922.97
2019-02-10T17:06:48.862Z,922.85
2019-02-10T17:08:20.156Z,923.04
2019-02-10T17:09:52.825Z,922.92
2019-02-10T17:11:24.129Z,922.85
2019-02-10T17:14:27.686Z,922.88
2019-02-10T17:16:04.899Z,922.85
2019-02-10T17:17:31.142Z,922.91
2019-02-10T17:19:02.973Z,922.90
2019-02-10T17:20:35.109Z,922.87
2019-02-10T17:22:06.636Z,922.84
2019-02-10T17:23:38.468Z,922.81
2019-02-10T17:25:10.304Z,922.81
2019-02-10T17:26:42.128Z,922.82
2019-02-10T17:28:14.061Z,922.77
2019-02-10T17:29:45.792Z,922.77
2019-02-10T17:31:17.624Z,922.72
2019-02-10T17:34:21.538Z,922.71
2019-02-10T17:35:53.323Z,922.59
2019-02-10T17:37:24.952Z,922.59
2019-02-10T17:38:56.794Z,922.56
2019-02-10T17:40:28.616Z,922.51
2019-02-10T17:42:00.447Z,922.47
2019-02-10T17:43:32.286Z,922.55
2019-02-10T17:45:04.110Z,922.39
2019-02-10T17:46:36.041Z,922.40
2019-02-10T17:48:07.770Z,922.56
2019-02-10T17:49:39.598Z,922.67
2019-02-10T17:51:11.427Z,922.43
2019-02-10T17:52:43.256Z,922.44
2019-02-10T17:54:15.085Z,922.42
2019-02-10T17:55:46.914Z,922.44
2019-02-10T17:57:18.746Z,922.41
2019-02-10T17:58:50.879Z,922.54
2019-02-10T18:00:22.405Z,922.45
2019-02-10T18:01:54.438Z,922.36
2019-02-10T18:03:26.065Z,922.34
2019-02-10T18:06:29.825Z,922.43
2019-02-10T18:08:01.553Z,922.43
2019-02-10T18:09:33.383Z,922.45
2019-02-10T18:12:37.039Z,922.38
2019-02-10T18:14:08.867Z,922.51
2019-02-10T18:15:40.699Z,922.33
2019-02-10T18:17:12.525Z,922.54
2019-02-10T18:18:45.484Z,922.38
2019-02-10T18:21:48.014Z,922.29
2019-02-10T18:23:20.048Z,922.19
2019-02-10T18:24:51.772Z,922.15
2019-02-10T18:26:23.502Z,922.16
2019-02-10T18:27:55.332Z,922.02
2019-02-10T18:29:27.166Z,922.13
2019-02-10T18:30:59.190Z,922.09
2019-02-10T18:32:30.851Z,922.05
2019-02-10T18:34:02.646Z,921.96
2019-02-10T18:35:34.471Z,921.98
2019-02-10T18:37:06.298Z,921.82
2019-02-10T18:38:38.127Z,921.73
2019-02-10T18:40:10.487Z,921.77
2019-02-10T18:41:41.780Z,921.71
2019-02-10T18:43:13.705Z,921.67
2019-02-10T18:44:45.736Z,921.63
2019-02-10T18:46:17.258Z,921.61
2019-02-10T18:47:49.085Z,921.63
2019-02-10T18:49:20.915Z,921.72
2019-02-10T18:50:52.741Z,921.65
2019-02-10T18:52:24.569Z,921.69
2019-02-10T18:53:56.398Z,921.69
2019-02-10T18:55:28.226Z,921.78
2019-02-10T18:57:00.058Z,921.89
2019-02-10T18:58:31.885Z,921.89
2019-02-10T19:00:03.716Z,921.97
2019-02-10T19:01:35.643Z,921.91
2019-02-10T19:03:07.373Z,921.72
2019-02-10T19:04:39.200Z,921.68
2019-02-10T19:06:11.030Z,921.32
2019-02-10T19:07:42.859Z,921.29
2019-02-10T19:09:14.691Z,921.59
2019-02-10T19:10:46.602Z,921.94
2019-02-10T19:12:18.340Z,921.91
2019-02-10T19:13:50.472Z,921.85
2019-02-10T19:15:21.996Z,921.77
2019-02-10T19:16:53.821Z,921.65
2019-02-10T19:18:25.647Z,921.73
2019-02-10T19:19:57.579Z,921.77
2019-02-10T19:21:29.300Z,921.71
2019-02-10T19:23:01.126Z,921.68
2019-02-10T19:24:32.952Z,921.65
2019-02-10T19:26:04.880Z,921.63
2019-02-10T19:27:36.605Z,921.68
2019-02-10T19:29:08.432Z,921.67
2019-02-10T19:30:40.260Z,921.60
2019-02-10T19:32:12.085Z,921.49
2019-02-10T19:33:43.911Z,921.65
2019-02-10T19:35:15.738Z,921.61
2019-02-10T19:36:47.563Z,921.54
2019-02-10T19:38:19.491Z,921.39
2019-02-10T19:39:51.216Z,921.44
2019-02-10T19:41:23.041Z,921.46
2019-02-10T19:42:55.070Z,921.41
2019-02-10T19:44:26.693Z,921.32
2019-02-10T19:45:58.518Z,921.31
2019-02-10T19:47:30.344Z,921.30
2019-02-10T19:49:02.169Z,921.33
2019-02-10T19:50:34.094Z,921.23